New England — V7HF3 — position and weather

sailwx.info

Track history (hours):
 
Tides and Currents Weather Stations Pressure Air Temp Water Temp Dewpoint Dewpoint Depression Visibility Wind Speed Wind Dir Waves Ship Positions

New England

Last reported at 2017-Mar-23 11:20 UTC. Time now 2017-Mar-24 06:16 UTC.
Position N 42°41' W 070°13'.

Length 182 m; draft 7.4 m.

Type: Ship. MMSI: 538002220.

Date/timePositionNaut miles runAvg speedWind from/ knotsBaromVisibWave heightAir tempDewpointWater temp
2017-Mar-23 11:20N 42°41' W 070°13'1012.7
2017-Mar-23 10:33N 42°36' W 070°25'1312.7
2017-Mar-23 09:34N 42°30' W 070°39'1312.7
2017-Mar-23 08:34N 42°23' W 070°54'7 6.5
2017-Mar-23 07:33N 42°23' W 071°02'1 0.3
2017-Mar-23 05:32N 42°23' W 071°02'0 0.0
2017-Mar-23 04:33N 42°23' W 071°02'0 0.0
2017-Mar-23 03:33N 42°23' W 071°02'0 0.0
2017-Mar-23 02:33N 42°23' W 071°02'0 0.0
2017-Mar-23 01:33N 42°23' W 071°02'0 0.0
2017-Mar-23 00:33N 42°23' W 071°02'0 0.0
2017-Mar-22 23:33N 42°23' W 071°02'0 0.0
2017-Mar-22 22:33N 42°23' W 071°02'0 0.0
2017-Mar-22 21:33N 42°23' W 071°02'0 0.0
2017-Mar-22 20:33N 42°23' W 071°02'0 0.0
2017-Mar-22 19:30N 42°23' W 071°02'0 0.0
2017-Mar-22 18:33N 42°23' W 071°02'0 0.0
2017-Mar-22 17:28N 42°23' W 071°02'0 0.0
2017-Mar-22 16:32N 42°23' W 071°02'0 0.0
2017-Mar-22 15:30N 42°23' W 071°02'0 0.0
2017-Mar-22 14:28N 42°23' W 071°02'0 0.0
2017-Mar-22 13:33N 42°23' W 071°02'0 0.0
2017-Mar-22 12:33N 42°23' W 071°02'2 1.7
2017-Mar-22 11:33N 42°21' W 071°02'9 8.9
2017-Mar-22 10:34N 42°25' W 070°51'2 2.1
2017-Mar-22 09:33N 42°26' W 070°48'0 0.0
2017-Mar-22 08:33N 42°26' W 070°48'0 0.0
2017-Mar-22 07:33N 42°26' W 070°48'0 0.1
2017-Mar-22 06:33N 42°26' W 070°48'0 0.0
2017-Mar-22 05:33N 42°26' W 070°48'0 0.0
2017-Mar-22 04:33N 42°26' W 070°48'0 0.0
2017-Mar-22 03:33N 42°26' W 070°48'0 0.0
2017-Mar-22 02:33N 42°26' W 070°48'0 0.1
2017-Mar-22 01:33N 42°26' W 070°48'0 0.1
2017-Mar-22 00:33N 42°26' W 070°49'0 0.4
2017-Mar-21 23:33N 42°25' W 070°49'9 9.0
2017-Mar-21 22:33N 42°30' W 070°38'1313.3
2017-Mar-21 21:33N 42°39' W 070°25'1312.5
2017-Mar-21 20:33N 42°50' W 070°34'1312.6
2017-Mar-21 19:33N 43°01' W 070°41'1 0.0
2017-Mar-20 22:33N 43°01' W 070°40'0 0.0
2017-Mar-20 21:32N 43°01' W 070°40'0 0.0
2017-Mar-20 20:33N 43°01' W 070°40'0 0.0
2017-Mar-20 19:33N 43°01' W 070°40'0 0.0
2017-Mar-20 18:34N 43°01' W 070°40'0 0.0
2017-Mar-20 17:33N 43°01' W 070°40'7 6.7
2017-Mar-20 16:33N 43°02' W 070°31'  
2017-Mar-17 01:33N 42°42' W 070°12'1414.5
2017-Mar-17 00:34N 42°35' W 070°29'1515.1
2017-Mar-16 23:34N 42°26' W 070°46'1312.7
2017-Mar-16 22:33N 42°21' W 071°02'3 2.9
2017-Mar-16 21:33N 42°24' W 071°01'0 0.0
2017-Mar-16 20:30N 42°24' W 071°01'0 0.0
2017-Mar-16 19:31N 42°24' W 071°01'0 0.0
2017-Mar-16 18:26N 42°24' W 071°01'0 0.0
2017-Mar-16 17:31N 42°24' W 071°01'0 0.0
2017-Mar-16 16:24N 42°24' W 071°01'0 0.0
2017-Mar-16 15:28N 42°24' W 071°01'0 0.0
2017-Mar-16 14:33N 42°24' W 071°01'0 0.0
2017-Mar-16 13:33N 42°24' W 071°01'0 0.0
2017-Mar-16 12:33N 42°24' W 071°01'0 0.0
2017-Mar-16 11:33N 42°24' W 071°01'0 0.0
2017-Mar-16 10:33N 42°24' W 071°01'0 0.0
2017-Mar-16 09:33N 42°24' W 071°01'0 0.0
2017-Mar-16 08:33N 42°24' W 071°01'0 0.0
2017-Mar-16 07:30N 42°24' W 071°01'0 0.0
2017-Mar-16 06:33N 42°24' W 071°01'0 0.0
2017-Mar-16 05:33N 42°24' W 071°01'0 0.0
2017-Mar-16 04:33N 42°24' W 071°01'0 0.0
2017-Mar-16 03:33N 42°24' W 071°01'0 0.0
2017-Mar-16 02:33N 42°24' W 071°01'0 0.0
2017-Mar-16 01:33N 42°24' W 071°01'0 0.0
2017-Mar-16 00:33N 42°24' W 071°01'0 0.0
2017-Mar-15 23:33N 42°24' W 071°01'0 0.0
2017-Mar-15 22:33N 42°24' W 071°01'0 0.0
2017-Mar-15 21:33N 42°24' W 071°01'0 0.0
2017-Mar-15 20:33N 42°24' W 071°01'0 0.0
2017-Mar-15 19:33N 42°24' W 071°01'0 0.0
2017-Mar-15 18:20N 42°24' W 071°01'1 0.3
2017-Mar-15 15:32N 42°23' W 071°01'4 3.6
2017-Mar-15 14:34N 42°20' W 070°60'9 9.4
2017-Mar-15 13:33N 42°25' W 070°49'0 0.1
2017-Mar-15 12:32N 42°25' W 070°49'0 0.0
2017-Mar-15 11:32N 42°25' W 070°49'0 0.0
2017-Mar-15 10:32N 42°25' W 070°49'0 0.0
2017-Mar-15 09:32N 42°25' W 070°49'0 0.0
2017-Mar-15 08:32N 42°25' W 070°49'0 0.0
2017-Mar-15 07:32N 42°25' W 070°49'0 0.0
2017-Mar-15 06:32N 42°25' W 070°49'0 0.0
2017-Mar-15 05:32N 42°25' W 070°49'0 0.1
2017-Mar-15 04:32N 42°25' W 070°49'0 0.1
2017-Mar-15 03:29N 42°25' W 070°49'5 5.0
2017-Mar-15 02:33N 42°27' W 070°43'1212.0
2017-Mar-15 01:33N 42°35' W 070°31'1211.9
2017-Mar-15 00:33N 42°40' W 070°17'1211.5
2017-Mar-14 23:33N 42°47' W 070°04'  
Track history (hours):
 
Tides and Currents Weather Stations Pressure Air Temp Water Temp Dewpoint Dewpoint Depression Visibility Wind Speed Wind Dir Waves Ship Positions

New England

Last reported at 2017-Mar-23 11:20 UTC. Time now 2017-Mar-24 06:16 UTC.
Position N 42°41' W 070°13'.

Length 182 m; draft 7.4 m.

Type: Ship. MMSI: 538002220.

Date/timePositionNaut miles runAvg speedWind from/ knotsBaromVisibWave heightAir tempDewpointWater temp
2017-Mar-23 11:20N 42°41' W 070°13'1012.7
2017-Mar-23 10:33N 42°36' W 070°25'1312.7
2017-Mar-23 09:34N 42°30' W 070°39'1312.7
2017-Mar-23 08:34N 42°23' W 070°54'7 6.5
2017-Mar-23 07:33N 42°23' W 071°02'1 0.3
2017-Mar-23 05:32N 42°23' W 071°02'0 0.0
2017-Mar-23 04:33N 42°23' W 071°02'0 0.0
2017-Mar-23 03:33N 42°23' W 071°02'0 0.0
2017-Mar-23 02:33N 42°23' W 071°02'0 0.0
2017-Mar-23 01:33N 42°23' W 071°02'0 0.0
2017-Mar-23 00:33N 42°23' W 071°02'0 0.0
2017-Mar-22 23:33N 42°23' W 071°02'0 0.0
2017-Mar-22 22:33N 42°23' W 071°02'0 0.0
2017-Mar-22 21:33N 42°23' W 071°02'0 0.0
2017-Mar-22 20:33N 42°23' W 071°02'0 0.0
2017-Mar-22 19:30N 42°23' W 071°02'0 0.0
2017-Mar-22 18:33N 42°23' W 071°02'0 0.0
2017-Mar-22 17:28N 42°23' W 071°02'0 0.0
2017-Mar-22 16:32N 42°23' W 071°02'0 0.0
2017-Mar-22 15:30N 42°23' W 071°02'0 0.0
2017-Mar-22 14:28N 42°23' W 071°02'0 0.0
2017-Mar-22 13:33N 42°23' W 071°02'0 0.0
2017-Mar-22 12:33N 42°23' W 071°02'2 1.7
2017-Mar-22 11:33N 42°21' W 071°02'9 8.9
2017-Mar-22 10:34N 42°25' W 070°51'2 2.1
2017-Mar-22 09:33N 42°26' W 070°48'0 0.0
2017-Mar-22 08:33N 42°26' W 070°48'0 0.0
2017-Mar-22 07:33N 42°26' W 070°48'0 0.1
2017-Mar-22 06:33N 42°26' W 070°48'0 0.0
2017-Mar-22 05:33N 42°26' W 070°48'0 0.0
2017-Mar-22 04:33N 42°26' W 070°48'0 0.0
2017-Mar-22 03:33N 42°26' W 070°48'0 0.0
2017-Mar-22 02:33N 42°26' W 070°48'0 0.1
2017-Mar-22 01:33N 42°26' W 070°48'0 0.1
2017-Mar-22 00:33N 42°26' W 070°49'0 0.4
2017-Mar-21 23:33N 42°25' W 070°49'9 9.0
2017-Mar-21 22:33N 42°30' W 070°38'1313.3
2017-Mar-21 21:33N 42°39' W 070°25'1312.5
2017-Mar-21 20:33N 42°50' W 070°34'1312.6
2017-Mar-21 19:33N 43°01' W 070°41'1 0.0
2017-Mar-20 22:33N 43°01' W 070°40'0 0.0
2017-Mar-20 21:32N 43°01' W 070°40'0 0.0
2017-Mar-20 20:33N 43°01' W 070°40'0 0.0
2017-Mar-20 19:33N 43°01' W 070°40'0 0.0
2017-Mar-20 18:34N 43°01' W 070°40'0 0.0
2017-Mar-20 17:33N 43°01' W 070°40'7 6.7
2017-Mar-20 16:33N 43°02' W 070°31'  
2017-Mar-17 01:33N 42°42' W 070°12'1414.5
2017-Mar-17 00:34N 42°35' W 070°29'1515.1
2017-Mar-16 23:34N 42°26' W 070°46'1312.7
2017-Mar-16 22:33N 42°21' W 071°02'3 2.9
2017-Mar-16 21:33N 42°24' W 071°01'0 0.0
2017-Mar-16 20:30N 42°24' W 071°01'0 0.0
2017-Mar-16 19:31N 42°24' W 071°01'0 0.0
2017-Mar-16 18:26N 42°24' W 071°01'0 0.0
2017-Mar-16 17:31N 42°24' W 071°01'0 0.0
2017-Mar-16 16:24N 42°24' W 071°01'0 0.0
2017-Mar-16 15:28N 42°24' W 071°01'0 0.0
2017-Mar-16 14:33N 42°24' W 071°01'0 0.0
2017-Mar-16 13:33N 42°24' W 071°01'0 0.0
2017-Mar-16 12:33N 42°24' W 071°01'0 0.0
2017-Mar-16 11:33N 42°24' W 071°01'0 0.0
2017-Mar-16 10:33N 42°24' W 071°01'0 0.0
2017-Mar-16 09:33N 42°24' W 071°01'0 0.0
2017-Mar-16 08:33N 42°24' W 071°01'0 0.0
2017-Mar-16 07:30N 42°24' W 071°01'0 0.0
2017-Mar-16 06:33N 42°24' W 071°01'0 0.0
2017-Mar-16 05:33N 42°24' W 071°01'0 0.0
2017-Mar-16 04:33N 42°24' W 071°01'0 0.0
2017-Mar-16 03:33N 42°24' W 071°01'0 0.0
2017-Mar-16 02:33N 42°24' W 071°01'0 0.0
2017-Mar-16 01:33N 42°24' W 071°01'0 0.0
2017-Mar-16 00:33N 42°24' W 071°01'0 0.0
2017-Mar-15 23:33N 42°24' W 071°01'0 0.0
2017-Mar-15 22:33N 42°24' W 071°01'0 0.0
2017-Mar-15 21:33N 42°24' W 071°01'0 0.0
2017-Mar-15 20:33N 42°24' W 071°01'0 0.0
2017-Mar-15 19:33N 42°24' W 071°01'0 0.0
2017-Mar-15 18:20N 42°24' W 071°01'1 0.3
2017-Mar-15 15:32N 42°23' W 071°01'4 3.6
2017-Mar-15 14:34N 42°20' W 070°60'9 9.4
2017-Mar-15 13:33N 42°25' W 070°49'0 0.1
2017-Mar-15 12:32N 42°25' W 070°49'0 0.0
2017-Mar-15 11:32N 42°25' W 070°49'0 0.0
2017-Mar-15 10:32N 42°25' W 070°49'0 0.0
2017-Mar-15 09:32N 42°25' W 070°49'0 0.0
2017-Mar-15 08:32N 42°25' W 070°49'0 0.0
2017-Mar-15 07:32N 42°25' W 070°49'0 0.0
2017-Mar-15 06:32N 42°25' W 070°49'0 0.0
2017-Mar-15 05:32N 42°25' W 070°49'0 0.1
2017-Mar-15 04:32N 42°25' W 070°49'0 0.1
2017-Mar-15 03:29N 42°25' W 070°49'5 5.0
2017-Mar-15 02:33N 42°27' W 070°43'1212.0
2017-Mar-15 01:33N 42°35' W 070°31'1211.9
2017-Mar-15 00:33N 42°40' W 070°17'1211.5
2017-Mar-14 23:33N 42°47' W 070°04'  

Dump ship's entire track history